PWSweather.com
Personal Weather Stations
Station Observations
ISYDDANM23
Felsted, AabenraaDK 6200

FelstedAabenraaDK 6200

Lat: 54.977066, Lon: 9.507192

Elevation: 135

Station Type: Davis Vantage Pro 2 Plus 24H

http://www.valkaer.dk

High Low Average
Temperature 62.7°F17.1°C 53.1°F11.7°C 57.8°F14.3°C
Dew Point 56.5°F13.6°C 46.9°F8.3°C 51.4°F10.8°C
Winds 19.6 mph 31.5 kmh 2.3 mph 3.7 kmh 9.0 mph S14.5 kmh S
Wind Gusts 28.8 mph46.3 kmh 3.5 mph5.6 kmh 13.0 mph20.9 kmh
Humidity 90% 61% 80%
Pressure 30.01 in1016.3 mb 29.78 in1008.5 mb -
Precipitation 0.20 in5.1 mm - -
Hour Temp Dew Point Humidity Winds Wind Gusts Pressure Precip Precip Rate Daily Precip Total
12:00 AM 59.8°F15.4°C 55.2°F12.9°C 85% 8.1 mph SE13.0 kmh SE 10.4 mph16.7 kmh 29.81 in1009.5 mb - 0.00 in0.0 mm 0.00 in0.0 mm
12:10 AM 59.7°F15.4°C 55.5°F13.1°C 86% 12.7 mph SE20.4 kmh SE 16.1 mph25.9 kmh 29.80 in1009.1 mb - 0.00 in0.0 mm 0.00 in0.0 mm
12:15 AM 59.7°F15.4°C 55.5°F13.1°C 86% 12.7 mph SE20.4 kmh SE 18.4 mph29.6 kmh 29.80 in1009.1 mb - 0.00 in0.0 mm 0.00 in0.0 mm
12:20 AM 59.7°F15.4°C 55.5°F13.1°C 86% 8.1 mph SE13.0 kmh SE 11.5 mph18.5 kmh 29.81 in1009.5 mb - 0.00 in0.0 mm 0.00 in0.0 mm
12:25 AM 59.7°F15.4°C 55.8°F13.2°C 87% 8.1 mph SE13.0 kmh SE 10.4 mph16.7 kmh 29.82 in1009.8 mb - 0.00 in0.0 mm 0.00 in0.0 mm
12:30 AM 59.7°F15.4°C 55.8°F13.2°C 87% 10.4 mph SE16.7 kmh SE 15.0 mph24.1 kmh 29.83 in1010.2 mb - 0.00 in0.0 mm 0.00 in0.0 mm
12:35 AM 59.8°F15.4°C 55.9°F13.3°C 87% 8.1 mph SE13.0 kmh SE 12.7 mph20.4 kmh 29.84 in1010.5 mb - 0.00 in0.0 mm 0.00 in0.0 mm
12:40 AM 59.9°F15.5°C 56.0°F13.3°C 87% 8.1 mph SE13.0 kmh SE 11.5 mph18.5 kmh 29.83 in1010.2 mb - 0.00 in0.0 mm 0.00 in0.0 mm
12:45 AM 60.2°F15.7°C 55.9°F13.3°C 86% 9.2 mph SE14.8 kmh SE 11.5 mph18.5 kmh 29.84 in1010.5 mb - 0.00 in0.0 mm 0.00 in0.0 mm
12:50 AM 60.4°F15.8°C 56.2°F13.4°C 86% 9.2 mph SE14.8 kmh SE 11.5 mph18.5 kmh 29.84 in1010.5 mb - 0.00 in0.0 mm 0.00 in0.0 mm
12:55 AM 60.5°F15.8°C 56.3°F13.5°C 86% 8.1 mph SE13.0 kmh SE 13.8 mph22.2 kmh 29.83 in1010.2 mb - 0.00 in0.0 mm 0.00 in0.0 mm
01:00 AM 60.7°F15.9°C 56.1°F13.4°C 85% 9.2 mph SE14.8 kmh SE 15.0 mph24.1 kmh 29.83 in1010.2 mb - 0.00 in0.0 mm 0.00 in0.0 mm
01:10 AM 60.5°F15.8°C 56.0°F13.3°C 85% 9.2 mph SE14.8 kmh SE 12.7 mph20.4 kmh 29.82 in1009.8 mb - 0.00 in0.0 mm 0.00 in0.0 mm
01:15 AM 60.4°F15.8°C 56.2°F13.4°C 86% 8.1 mph SE13.0 kmh SE 16.1 mph25.9 kmh 29.82 in1009.8 mb - 0.01 in0.3 mm 0.01 in0.3 mm
01:20 AM 60.2°F15.7°C 56.0°F13.3°C 86% 9.2 mph SE14.8 kmh SE 12.7 mph20.4 kmh 29.80 in1009.1 mb - 0.02 in0.5 mm 0.02 in0.5 mm
01:25 AM 60.1°F15.6°C 56.2°F13.4°C 87% 6.9 mph SE11.1 kmh SE 9.2 mph14.8 kmh 29.80 in1009.1 mb - 0.02 in0.5 mm 0.02 in0.5 mm
01:30 AM 60.0°F15.6°C 56.1°F13.4°C 87% 4.6 mph ESE7.4 kmh ESE 9.2 mph14.8 kmh 29.78 in1008.5 mb - 0.02 in0.5 mm 0.02 in0.5 mm
01:35 AM 59.8°F15.4°C 56.2°F13.4°C 88% 4.6 mph SSE7.4 kmh SSE 8.1 mph13.0 kmh 29.80 in1009.1 mb - 0.02 in0.5 mm 0.02 in0.5 mm
01:40 AM 59.6°F15.3°C 56.1°F13.4°C 88% 4.6 mph SSE7.4 kmh SSE 9.2 mph14.8 kmh 29.82 in1009.8 mb - 0.02 in0.5 mm 0.02 in0.5 mm
01:45 AM 59.6°F15.3°C 56.0°F13.3°C 88% 6.9 mph SE11.1 kmh SE 10.4 mph16.7 kmh 29.81 in1009.5 mb - 0.02 in0.5 mm 0.02 in0.5 mm
01:50 AM 59.5°F15.3°C 56.3°F13.5°C 89% 3.5 mph SSE5.6 kmh SSE 8.1 mph13.0 kmh 29.82 in1009.8 mb - 0.02 in0.5 mm 0.02 in0.5 mm
01:55 AM 59.5°F15.3°C 56.3°F13.5°C 89% 5.8 mph SE9.3 kmh SE 9.2 mph14.8 kmh 29.82 in1009.8 mb - 0.02 in0.5 mm 0.02 in0.5 mm
02:00 AM 59.6°F15.3°C 56.4°F13.6°C 89% 5.8 mph SE9.3 kmh SE 6.9 mph11.1 kmh 29.81 in1009.5 mb - 0.02 in0.5 mm 0.02 in0.5 mm
02:10 AM 59.7°F15.4°C 56.4°F13.6°C 89% 6.9 mph SE11.1 kmh SE 9.2 mph14.8 kmh 29.82 in1009.8 mb - 0.03 in0.8 mm 0.03 in0.8 mm
02:15 AM 59.7°F15.4°C 56.5°F13.6°C 89% 5.8 mph SSE9.3 kmh SSE 11.5 mph18.5 kmh 29.82 in1009.8 mb - 0.02 in0.5 mm 0.03 in0.8 mm
02:20 AM 59.7°F15.4°C 56.5°F13.6°C 89% 5.8 mph SSE9.3 kmh SSE 11.5 mph18.5 kmh 29.82 in1009.8 mb - 0.02 in0.5 mm 0.03 in0.8 mm
02:25 AM 59.8°F15.4°C 56.5°F13.6°C 89% 6.9 mph SSE11.1 kmh SSE 8.1 mph13.0 kmh 29.81 in1009.5 mb - 0.01 in0.3 mm 0.03 in0.8 mm
02:30 AM 59.7°F15.4°C 56.5°F13.6°C 89% 6.9 mph SSE11.1 kmh SSE 11.5 mph18.5 kmh 29.81 in1009.5 mb - 0.01 in0.3 mm 0.03 in0.8 mm
02:35 AM 59.8°F15.4°C 56.5°F13.6°C 89% 5.8 mph SE9.3 kmh SE 10.4 mph16.7 kmh 29.82 in1009.8 mb - 0.01 in0.3 mm 0.03 in0.8 mm
02:40 AM 59.7°F15.4°C 56.5°F13.6°C 89% 5.8 mph SSE9.3 kmh SSE 9.2 mph14.8 kmh 29.82 in1009.8 mb - 0.01 in0.3 mm 0.03 in0.8 mm
02:45 AM 59.6°F15.3°C 56.4°F13.6°C 89% 4.6 mph SSE7.4 kmh SSE 6.9 mph11.1 kmh 29.82 in1009.8 mb - 0.01 in0.3 mm 0.03 in0.8 mm
02:50 AM 59.6°F15.3°C 56.3°F13.5°C 89% 6.9 mph SSE11.1 kmh SSE 11.5 mph18.5 kmh 29.82 in1009.8 mb - 0.01 in0.3 mm 0.03 in0.8 mm
02:55 AM 59.5°F15.3°C 56.3°F13.5°C 89% 4.6 mph SSE7.4 kmh SSE 6.9 mph11.1 kmh 29.82 in1009.8 mb - 0.01 in0.3 mm 0.03 in0.8 mm
03:00 AM 59.5°F15.3°C 56.3°F13.5°C 89% 5.8 mph SSE9.3 kmh SSE 9.2 mph14.8 kmh 29.82 in1009.8 mb - 0.01 in0.3 mm 0.03 in0.8 mm
03:10 AM 59.5°F15.3°C 56.5°F13.6°C 90% 5.8 mph SE9.3 kmh SE 9.2 mph14.8 kmh 29.81 in1009.5 mb - 0.00 in0.0 mm 0.03 in0.8 mm
03:15 AM 59.4°F15.2°C 56.5°F13.6°C 90% 5.8 mph SSE9.3 kmh SSE 10.4 mph16.7 kmh 29.82 in1009.8 mb - 0.00 in0.0 mm 0.03 in0.8 mm
03:20 AM 59.4°F15.2°C 56.5°F13.6°C 90% 5.8 mph SSE9.3 kmh SSE 11.5 mph18.5 kmh 29.82 in1009.8 mb - 0.00 in0.0 mm 0.03 in0.8 mm
03:25 AM 59.3°F15.2°C 56.3°F13.5°C 90% 5.8 mph SSE9.3 kmh SSE 6.9 mph11.1 kmh 29.82 in1009.8 mb - 0.00 in0.0 mm 0.03 in0.8 mm
03:30 AM 59.2°F15.1°C 56.3°F13.5°C 90% 4.6 mph SSE7.4 kmh SSE 6.9 mph11.1 kmh 29.81 in1009.5 mb - 0.00 in0.0 mm 0.03 in0.8 mm
03:35 AM 59.2°F15.1°C 56.3°F13.5°C 90% 4.6 mph SE7.4 kmh SE 8.1 mph13.0 kmh 29.80 in1009.1 mb - 0.00 in0.0 mm 0.03 in0.8 mm
03:40 AM 59.2°F15.1°C 56.2°F13.4°C 90% 6.9 mph SE11.1 kmh SE 9.2 mph14.8 kmh 29.80 in1009.1 mb - 0.00 in0.0 mm 0.03 in0.8 mm
03:45 AM 59.2°F15.1°C 56.2°F13.4°C 90% 6.9 mph SE11.1 kmh SE 10.4 mph16.7 kmh 29.80 in1009.1 mb - 0.00 in0.0 mm 0.03 in0.8 mm
03:50 AM 59.1°F15.1°C 56.2°F13.4°C 90% 5.8 mph SSE9.3 kmh SSE 8.1 mph13.0 kmh 29.81 in1009.5 mb - 0.00 in0.0 mm 0.03 in0.8 mm
03:55 AM 59.1°F15.1°C 56.1°F13.4°C 90% 5.8 mph SSE9.3 kmh SSE 8.1 mph13.0 kmh 29.81 in1009.5 mb - 0.00 in0.0 mm 0.03 in0.8 mm
04:00 AM 59.0°F15.0°C 56.1°F13.4°C 90% 3.5 mph S5.6 kmh S 4.6 mph7.4 kmh 29.81 in1009.5 mb - 0.00 in0.0 mm 0.03 in0.8 mm
04:10 AM 58.8°F14.9°C 55.9°F13.3°C 90% 2.3 mph SE3.7 kmh SE 3.5 mph5.6 kmh 29.79 in1008.8 mb - 0.00 in0.0 mm 0.03 in0.8 mm
04:15 AM 58.7°F14.8°C 55.8°F13.2°C 90% 5.8 mph S9.3 kmh S 8.1 mph13.0 kmh 29.81 in1009.5 mb - 0.00 in0.0 mm 0.03 in0.8 mm
04:20 AM 58.7°F14.8°C 55.8°F13.2°C 90% 3.5 mph SSE5.6 kmh SSE 5.8 mph9.3 kmh 29.80 in1009.1 mb - 0.00 in0.0 mm 0.03 in0.8 mm
04:25 AM 58.6°F14.8°C 55.7°F13.2°C 90% 4.6 mph SE7.4 kmh SE 6.9 mph11.1 kmh 29.80 in1009.1 mb - 0.00 in0.0 mm 0.03 in0.8 mm
04:30 AM 58.6°F14.8°C 55.7°F13.2°C 90% 4.6 mph SSE7.4 kmh SSE 6.9 mph11.1 kmh 29.80 in1009.1 mb - 0.00 in0.0 mm 0.03 in0.8 mm
04:35 AM 58.5°F14.7°C 55.6°F13.1°C 90% 4.6 mph SSE7.4 kmh SSE 8.1 mph13.0 kmh 29.80 in1009.1 mb - 0.00 in0.0 mm 0.03 in0.8 mm
04:40 AM 58.4°F14.7°C 55.5°F13.1°C 90% 4.6 mph S7.4 kmh S 6.9 mph11.1 kmh 29.81 in1009.5 mb - 0.00 in0.0 mm 0.03 in0.8 mm
04:45 AM 58.4°F14.7°C 55.2°F12.9°C 89% 3.5 mph SSE5.6 kmh SSE 5.8 mph9.3 kmh 29.81 in1009.5 mb - 0.00 in0.0 mm 0.03 in0.8 mm
04:50 AM 58.3°F14.6°C 55.4°F13.0°C 90% 5.8 mph S9.3 kmh S 11.5 mph18.5 kmh 29.81 in1009.5 mb - 0.00 in0.0 mm 0.03 in0.8 mm
04:55 AM 58.3°F14.6°C 55.1°F12.8°C 89% 4.6 mph S7.4 kmh S 8.1 mph13.0 kmh 29.81 in1009.5 mb - 0.00 in0.0 mm 0.03 in0.8 mm
05:00 AM 58.3°F14.6°C 55.1°F12.8°C 89% 5.8 mph S9.3 kmh S 11.5 mph18.5 kmh 29.81 in1009.5 mb - 0.00 in0.0 mm 0.03 in0.8 mm
05:10 AM 58.2°F14.6°C 54.7°F12.6°C 88% 5.8 mph S9.3 kmh S 11.5 mph18.5 kmh 29.80 in1009.1 mb - 0.00 in0.0 mm 0.03 in0.8 mm
05:15 AM 58.1°F14.5°C 54.3°F12.4°C 87% 4.6 mph S7.4 kmh S 9.2 mph14.8 kmh 29.80 in1009.1 mb - 0.00 in0.0 mm 0.03 in0.8 mm
05:20 AM 58.1°F14.5°C 54.2°F12.3°C 87% 6.9 mph S11.1 kmh S 10.4 mph16.7 kmh 29.80 in1009.1 mb - 0.00 in0.0 mm 0.03 in0.8 mm
05:25 AM 58.1°F14.5°C 53.9°F12.2°C 86% 6.9 mph S11.1 kmh S 6.9 mph11.1 kmh 29.80 in1009.1 mb - 0.00 in0.0 mm 0.03 in0.8 mm
05:30 AM 58.0°F14.4°C 53.8°F12.1°C 86% 5.8 mph S9.3 kmh S 10.4 mph16.7 kmh 29.81 in1009.5 mb - 0.00 in0.0 mm 0.03 in0.8 mm
05:35 AM 57.9°F14.4°C 53.4°F11.9°C 85% 5.8 mph S9.3 kmh S 10.4 mph16.7 kmh 29.80 in1009.1 mb - 0.00 in0.0 mm 0.03 in0.8 mm
05:40 AM 57.8°F14.3°C 53.4°F11.9°C 85% 8.1 mph S13.0 kmh S 8.1 mph13.0 kmh 29.80 in1009.1 mb - 0.00 in0.0 mm 0.03 in0.8 mm
05:45 AM 57.8°F14.3°C 53.3°F11.8°C 85% 6.9 mph S11.1 kmh S 11.5 mph18.5 kmh 29.80 in1009.1 mb - 0.00 in0.0 mm 0.03 in0.8 mm
05:50 AM 57.7°F14.3°C 52.9°F11.6°C 84% 6.9 mph S11.1 kmh S 8.1 mph13.0 kmh 29.81 in1009.5 mb - 0.00 in0.0 mm 0.03 in0.8 mm
05:55 AM 57.8°F14.3°C 52.7°F11.5°C 83% 4.6 mph S7.4 kmh S 8.1 mph13.0 kmh 29.80 in1009.1 mb - 0.00 in0.0 mm 0.03 in0.8 mm
06:00 AM 57.7°F14.3°C 52.9°F11.6°C 84% 5.8 mph S9.3 kmh S 9.2 mph14.8 kmh 29.81 in1009.5 mb - 0.00 in0.0 mm 0.03 in0.8 mm
06:10 AM 57.8°F14.3°C 52.3°F11.3°C 82% 8.1 mph S13.0 kmh S 10.4 mph16.7 kmh 29.81 in1009.5 mb - 0.00 in0.0 mm 0.03 in0.8 mm
06:15 AM 57.8°F14.3°C 52.3°F11.3°C 82% 6.9 mph S11.1 kmh S 10.4 mph16.7 kmh 29.81 in1009.5 mb - 0.00 in0.0 mm 0.03 in0.8 mm
06:20 AM 57.8°F14.3°C 52.4°F11.3°C 82% 6.9 mph S11.1 kmh S 11.5 mph18.5 kmh 29.81 in1009.5 mb - 0.00 in0.0 mm 0.03 in0.8 mm
06:25 AM 57.9°F14.4°C 52.4°F11.3°C 82% 6.9 mph S11.1 kmh S 11.5 mph18.5 kmh 29.81 in1009.5 mb - 0.00 in0.0 mm 0.03 in0.8 mm
06:30 AM 57.7°F14.3°C 51.9°F11.1°C 81% 6.9 mph S11.1 kmh S 10.4 mph16.7 kmh 29.81 in1009.5 mb - 0.00 in0.0 mm 0.03 in0.8 mm
06:35 AM 57.7°F14.3°C 51.9°F11.1°C 81% 8.1 mph S13.0 kmh S 10.4 mph16.7 kmh 29.81 in1009.5 mb - 0.00 in0.0 mm 0.03 in0.8 mm
06:40 AM 57.8°F14.3°C 52.0°F11.1°C 81% 6.9 mph S11.1 kmh S 12.7 mph20.4 kmh 29.81 in1009.5 mb - 0.00 in0.0 mm 0.03 in0.8 mm
06:45 AM 58.0°F14.4°C 51.8°F11.0°C 80% 8.1 mph SSW13.0 kmh SSW 15.0 mph24.1 kmh 29.82 in1009.8 mb - 0.00 in0.0 mm 0.03 in0.8 mm
06:50 AM 58.5°F14.7°C 52.0°F11.1°C 79% 8.1 mph S13.0 kmh S 11.5 mph18.5 kmh 29.82 in1009.8 mb - 0.00 in0.0 mm 0.03 in0.8 mm
06:55 AM 58.7°F14.8°C 51.9°F11.1°C 78% 8.1 mph SSW13.0 kmh SSW 12.7 mph20.4 kmh 29.82 in1009.8 mb - 0.00 in0.0 mm 0.03 in0.8 mm
07:00 AM 58.7°F14.8°C 51.9°F11.1°C 78% 8.1 mph SSW13.0 kmh SSW 10.4 mph16.7 kmh 29.81 in1009.5 mb - 0.00 in0.0 mm 0.03 in0.8 mm
07:10 AM 58.5°F14.7°C 51.7°F10.9°C 78% 9.2 mph SSW14.8 kmh SSW 13.8 mph22.2 kmh 29.82 in1009.8 mb - 0.00 in0.0 mm 0.03 in0.8 mm
07:15 AM 58.7°F14.8°C 51.5°F10.8°C 77% 8.1 mph SSW13.0 kmh SSW 12.7 mph20.4 kmh 29.82 in1009.8 mb - 0.00 in0.0 mm 0.03 in0.8 mm
07:20 AM 58.5°F14.7°C 51.4°F10.8°C 77% 8.1 mph S13.0 kmh S 11.5 mph18.5 kmh 29.82 in1009.8 mb - 0.00 in0.0 mm 0.03 in0.8 mm
07:25 AM 58.4°F14.7°C 50.9°F10.5°C 76% 10.4 mph SSW16.7 kmh SSW 16.1 mph25.9 kmh 29.82 in1009.8 mb - 0.00 in0.0 mm 0.03 in0.8 mm
07:30 AM 58.6°F14.8°C 51.4°F10.8°C 77% 8.1 mph S13.0 kmh S 11.5 mph18.5 kmh 29.82 in1009.8 mb - 0.00 in0.0 mm 0.03 in0.8 mm
07:35 AM 58.8°F14.9°C 51.6°F10.9°C 77% 6.9 mph S11.1 kmh S 10.4 mph16.7 kmh 29.83 in1010.2 mb - 0.00 in0.0 mm 0.03 in0.8 mm
07:40 AM 59.3°F15.2°C 51.8°F11.0°C 76% 5.8 mph S9.3 kmh S 10.4 mph16.7 kmh 29.83 in1010.2 mb - 0.00 in0.0 mm 0.03 in0.8 mm
07:45 AM 60.5°F15.8°C 52.9°F11.6°C 76% 8.1 mph S13.0 kmh S 12.7 mph20.4 kmh 29.83 in1010.2 mb - 0.00 in0.0 mm 0.03 in0.8 mm
07:50 AM 61.2°F16.2°C 52.4°F11.3°C 73% 9.2 mph S14.8 kmh S 13.8 mph22.2 kmh 29.83 in1010.2 mb - 0.00 in0.0 mm 0.03 in0.8 mm
07:55 AM 61.0°F16.1°C 51.5°F10.8°C 71% 10.4 mph S16.7 kmh S 15.0 mph24.1 kmh 29.83 in1010.2 mb - 0.00 in0.0 mm 0.03 in0.8 mm
08:00 AM 60.6°F15.9°C 51.5°F10.8°C 72% 8.1 mph S13.0 kmh S 11.5 mph18.5 kmh 29.83 in1010.2 mb - 0.00 in0.0 mm 0.03 in0.8 mm
08:10 AM 61.4°F16.3°C 51.5°F10.8°C 70% 11.5 mph SSW18.5 kmh SSW 16.1 mph25.9 kmh 29.83 in1010.2 mb - 0.00 in0.0 mm 0.03 in0.8 mm
08:15 AM 61.4°F16.3°C 50.3°F10.2°C 67% 15.0 mph SSW24.1 kmh SSW 19.6 mph31.5 kmh 29.83 in1010.2 mb - 0.00 in0.0 mm 0.03 in0.8 mm
08:20 AM 61.1°F16.2°C 50.4°F10.2°C 68% 10.4 mph S16.7 kmh S 11.5 mph18.5 kmh 29.84 in1010.5 mb - 0.00 in0.0 mm 0.03 in0.8 mm
08:25 AM 61.0°F16.1°C 50.8°F10.4°C 69% 10.4 mph S16.7 kmh S 13.8 mph22.2 kmh 29.84 in1010.5 mb - 0.00 in0.0 mm 0.03 in0.8 mm
08:30 AM 60.9°F16.1°C 50.7°F10.4°C 69% 5.8 mph SSW9.3 kmh SSW 9.2 mph14.8 kmh 29.84 in1010.5 mb - 0.00 in0.0 mm 0.03 in0.8 mm
08:35 AM 60.7°F15.9°C 50.9°F10.5°C 70% 8.1 mph S13.0 kmh S 12.7 mph20.4 kmh 29.84 in1010.5 mb - 0.00 in0.0 mm 0.03 in0.8 mm
08:40 AM 60.6°F15.9°C 50.4°F10.2°C 69% 9.2 mph SSW14.8 kmh SSW 11.5 mph18.5 kmh 29.84 in1010.5 mb - 0.00 in0.0 mm 0.03 in0.8 mm
08:45 AM 60.2°F15.7°C 50.0°F10.0°C 69% 9.2 mph S14.8 kmh S 16.1 mph25.9 kmh 29.85 in1010.8 mb - 0.00 in0.0 mm 0.03 in0.8 mm
08:50 AM 60.2°F15.7°C 49.2°F9.6°C 67% 11.5 mph SSW18.5 kmh SSW 16.1 mph25.9 kmh 29.85 in1010.8 mb - 0.00 in0.0 mm 0.03 in0.8 mm
08:55 AM 60.2°F15.7°C 49.6°F9.8°C 68% 8.1 mph S13.0 kmh S 12.7 mph20.4 kmh 29.85 in1010.8 mb - 0.00 in0.0 mm 0.03 in0.8 mm
09:00 AM 60.2°F15.7°C 49.6°F9.8°C 68% 10.4 mph S16.7 kmh S 12.7 mph20.4 kmh 29.85 in1010.8 mb - 0.00 in0.0 mm 0.03 in0.8 mm
09:10 AM 60.3°F15.7°C 50.1°F10.1°C 69% 6.9 mph S11.1 kmh S 9.2 mph14.8 kmh 29.85 in1010.8 mb - 0.00 in0.0 mm 0.03 in0.8 mm
09:15 AM 60.3°F15.7°C 49.7°F9.8°C 68% 10.4 mph SSW16.7 kmh SSW 15.0 mph24.1 kmh 29.85 in1010.8 mb - 0.00 in0.0 mm 0.03 in0.8 mm
09:20 AM 60.3°F15.7°C 50.1°F10.1°C 69% 9.2 mph S14.8 kmh S 16.1 mph25.9 kmh 29.85 in1010.8 mb - 0.00 in0.0 mm 0.03 in0.8 mm
09:25 AM 60.4°F15.8°C 50.6°F10.3°C 70% 6.9 mph SSW11.1 kmh SSW 9.2 mph14.8 kmh 29.85 in1010.8 mb - 0.00 in0.0 mm 0.03 in0.8 mm
09:30 AM 60.5°F15.8°C 50.7°F10.4°C 70% 9.2 mph S14.8 kmh S 13.8 mph22.2 kmh 29.85 in1010.8 mb - 0.00 in0.0 mm 0.03 in0.8 mm
09:35 AM 60.9°F16.1°C 50.7°F10.4°C 69% 9.2 mph S14.8 kmh S 17.3 mph27.8 kmh 29.85 in1010.8 mb - 0.00 in0.0 mm 0.03 in0.8 mm
09:40 AM 61.4°F16.3°C 50.7°F10.4°C 68% 8.1 mph SW13.0 kmh SW 15.0 mph24.1 kmh 29.85 in1010.8 mb - 0.00 in0.0 mm 0.03 in0.8 mm
09:45 AM 61.6°F16.4°C 50.1°F10.1°C 66% 12.7 mph SSW20.4 kmh SSW 16.1 mph25.9 kmh 29.85 in1010.8 mb - 0.00 in0.0 mm 0.03 in0.8 mm
09:50 AM 61.8°F16.6°C 50.3°F10.2°C 66% 9.2 mph S14.8 kmh S 11.5 mph18.5 kmh 29.85 in1010.8 mb - 0.00 in0.0 mm 0.03 in0.8 mm
09:55 AM 61.9°F16.6°C 50.0°F10.0°C 65% 10.4 mph SSW16.7 kmh SSW 12.7 mph20.4 kmh 29.86 in1011.2 mb - 0.00 in0.0 mm 0.03 in0.8 mm
10:00 AM 62.1°F16.7°C 50.6°F10.3°C 66% 9.2 mph S14.8 kmh S 15.0 mph24.1 kmh 29.86 in1011.2 mb - 0.00 in0.0 mm 0.03 in0.8 mm
10:10 AM 62.3°F16.8°C 50.8°F10.4°C 66% 8.1 mph S13.0 kmh S 10.4 mph16.7 kmh 29.86 in1011.2 mb - 0.00 in0.0 mm 0.03 in0.8 mm
10:15 AM 62.7°F17.1°C 50.8°F10.4°C 65% 8.1 mph SSW13.0 kmh SSW 11.5 mph18.5 kmh 29.86 in1011.2 mb - 0.00 in0.0 mm 0.03 in0.8 mm
10:20 AM 62.1°F16.7°C 50.6°F10.3°C 66% 8.1 mph SSW13.0 kmh SSW 15.0 mph24.1 kmh 29.86 in1011.2 mb - 0.00 in0.0 mm 0.03 in0.8 mm
10:25 AM 61.4°F16.3°C 49.5°F9.7°C 65% 9.2 mph S14.8 kmh S 11.5 mph18.5 kmh 29.87 in1011.5 mb - 0.00 in0.0 mm 0.03 in0.8 mm
10:30 AM 60.4°F15.8°C 49.0°F9.4°C 66% 12.7 mph S20.4 kmh S 17.3 mph27.8 kmh 29.87 in1011.5 mb - 0.00 in0.0 mm 0.03 in0.8 mm
10:35 AM 59.7°F15.4°C 48.7°F9.3°C 67% 10.4 mph S16.7 kmh S 12.7 mph20.4 kmh 29.88 in1011.9 mb - 0.00 in0.0 mm 0.03 in0.8 mm
10:40 AM 59.5°F15.3°C 48.9°F9.4°C 68% 8.1 mph S13.0 kmh S 11.5 mph18.5 kmh 29.88 in1011.9 mb - 0.00 in0.0 mm 0.03 in0.8 mm
10:45 AM 59.9°F15.5°C 48.5°F9.2°C 66% 8.1 mph SSW13.0 kmh SSW 11.5 mph18.5 kmh 29.88 in1011.9 mb - 0.00 in0.0 mm 0.03 in0.8 mm
10:50 AM 61.0°F16.1°C 49.2°F9.6°C 65% 5.8 mph SSE9.3 kmh SSE 11.5 mph18.5 kmh 29.88 in1011.9 mb - 0.00 in0.0 mm 0.03 in0.8 mm
10:55 AM 61.0°F16.1°C 48.7°F9.3°C 64% 8.1 mph SSW13.0 kmh SSW 18.4 mph29.6 kmh 29.88 in1011.9 mb - 0.00 in0.0 mm 0.03 in0.8 mm
11:00 AM 60.6°F15.9°C 48.8°F9.3°C 65% 9.2 mph SSW14.8 kmh SSW 12.7 mph20.4 kmh 29.88 in1011.9 mb - 0.00 in0.0 mm 0.03 in0.8 mm
11:10 AM 60.7°F15.9°C 48.0°F8.9°C 63% 11.5 mph SSW18.5 kmh SSW 20.7 mph33.3 kmh 29.88 in1011.9 mb - 0.00 in0.0 mm 0.03 in0.8 mm
11:15 AM 60.5°F15.8°C 47.0°F8.3°C 61% 13.8 mph S22.2 kmh S 15.0 mph24.1 kmh 29.89 in1012.2 mb - 0.00 in0.0 mm 0.03 in0.8 mm
11:20 AM 60.1°F15.6°C 47.0°F8.3°C 62% 15.0 mph SSW24.1 kmh SSW 20.7 mph33.3 kmh 29.89 in1012.2 mb - 0.00 in0.0 mm 0.03 in0.8 mm
11:25 AM 60.0°F15.6°C 47.4°F8.6°C 63% 9.2 mph SSW14.8 kmh SSW 13.8 mph22.2 kmh 29.89 in1012.2 mb - 0.00 in0.0 mm 0.03 in0.8 mm
11:30 AM 60.2°F15.7°C 47.9°F8.8°C 64% 10.4 mph SW16.7 kmh SW 19.6 mph31.5 kmh 29.89 in1012.2 mb - 0.00 in0.0 mm 0.03 in0.8 mm
11:35 AM 60.6°F15.9°C 47.9°F8.8°C 63% 9.2 mph SSW14.8 kmh SSW 16.1 mph25.9 kmh 29.89 in1012.2 mb - 0.00 in0.0 mm 0.03 in0.8 mm
11:40 AM 61.5°F16.4°C 48.4°F9.1°C 62% 10.4 mph SSW16.7 kmh SSW 19.6 mph31.5 kmh 29.89 in1012.2 mb - 0.00 in0.0 mm 0.03 in0.8 mm
11:45 AM 61.0°F16.1°C 47.5°F8.6°C 61% 12.7 mph SSW20.4 kmh SSW 18.4 mph29.6 kmh 29.89 in1012.2 mb - 0.00 in0.0 mm 0.03 in0.8 mm
11:50 AM 60.4°F15.8°C 47.8°F8.8°C 63% 9.2 mph SSW14.8 kmh SSW 13.8 mph22.2 kmh 29.89 in1012.2 mb - 0.00 in0.0 mm 0.03 in0.8 mm
11:55 AM 60.8°F16.0°C 48.5°F9.2°C 64% 8.1 mph S13.0 kmh S 13.8 mph22.2 kmh 29.89 in1012.2 mb - 0.00 in0.0 mm 0.03 in0.8 mm
12:00 PM 61.5°F16.4°C 48.8°F9.3°C 63% 10.4 mph S16.7 kmh S 18.4 mph29.6 kmh 29.89 in1012.2 mb - 0.00 in0.0 mm 0.03 in0.8 mm
12:10 PM 61.2°F16.2°C 47.6°F8.7°C 61% 15.0 mph SW24.1 kmh SW 25.3 mph40.7 kmh 29.89 in1012.2 mb - 0.00 in0.0 mm 0.03 in0.8 mm
12:15 PM 60.6°F15.9°C 47.5°F8.6°C 62% 13.8 mph SSW22.2 kmh SSW 19.6 mph31.5 kmh 29.90 in1012.5 mb - 0.00 in0.0 mm 0.03 in0.8 mm
12:20 PM 60.3°F15.7°C 47.2°F8.4°C 62% 10.4 mph SSW16.7 kmh SSW 15.0 mph24.1 kmh 29.90 in1012.5 mb - 0.00 in0.0 mm 0.03 in0.8 mm
12:25 PM 60.2°F15.7°C 47.1°F8.4°C 62% 13.8 mph S22.2 kmh S 20.7 mph33.3 kmh 29.90 in1012.5 mb - 0.00 in0.0 mm 0.03 in0.8 mm
12:30 PM 60.0°F15.6°C 46.9°F8.3°C 62% 11.5 mph SSW18.5 kmh SSW 21.9 mph35.2 kmh 29.90 in1012.5 mb - 0.00 in0.0 mm 0.03 in0.8 mm
12:35 PM 59.8°F15.4°C 47.2°F8.4°C 63% 10.4 mph SSW16.7 kmh SSW 16.1 mph25.9 kmh 29.90 in1012.5 mb - 0.00 in0.0 mm 0.03 in0.8 mm
12:40 PM 59.7°F15.4°C 47.1°F8.4°C 63% 12.7 mph SSW20.4 kmh SSW 19.6 mph31.5 kmh 29.90 in1012.5 mb - 0.00 in0.0 mm 0.03 in0.8 mm
12:45 PM 59.2°F15.1°C 47.1°F8.4°C 64% 16.1 mph SW25.9 kmh SW 28.8 mph46.3 kmh 29.91 in1012.9 mb - 0.00 in0.0 mm 0.03 in0.8 mm
12:50 PM 58.2°F14.6°C 47.7°F8.7°C 68% 11.5 mph SSW18.5 kmh SSW 13.8 mph22.2 kmh 29.91 in1012.9 mb - 0.00 in0.0 mm 0.03 in0.8 mm
12:55 PM 57.9°F14.4°C 48.2°F9.0°C 70% 9.2 mph SW14.8 kmh SW 13.8 mph22.2 kmh 29.90 in1012.5 mb - 0.00 in0.0 mm 0.03 in0.8 mm
01:00 PM 58.3°F14.6°C 47.4°F8.6°C 67% 13.8 mph SSW22.2 kmh SSW 19.6 mph31.5 kmh 29.91 in1012.9 mb - 0.00 in0.0 mm 0.03 in0.8 mm
01:10 PM 59.8°F15.4°C 48.0°F8.9°C 65% 13.8 mph SSW22.2 kmh SSW 19.6 mph31.5 kmh 29.91 in1012.9 mb - 0.00 in0.0 mm 0.03 in0.8 mm
01:15 PM 59.9°F15.5°C 48.1°F8.9°C 65% 13.8 mph SSW22.2 kmh SSW 21.9 mph35.2 kmh 29.91 in1012.9 mb - 0.00 in0.0 mm 0.03 in0.8 mm
01:20 PM 59.5°F15.3°C 48.2°F9.0°C 66% 18.4 mph S29.6 kmh S 25.3 mph40.7 kmh 29.91 in1012.9 mb - 0.00 in0.0 mm 0.03 in0.8 mm
01:25 PM 57.6°F14.2°C 49.0°F9.4°C 73% 11.5 mph S18.5 kmh S 19.6 mph31.5 kmh 29.92 in1013.2 mb - 0.00 in0.0 mm 0.03 in0.8 mm
01:30 PM 56.7°F13.7°C 49.5°F9.7°C 77% 8.1 mph S13.0 kmh S 11.5 mph18.5 kmh 29.92 in1013.2 mb - 0.00 in0.0 mm 0.03 in0.8 mm
01:35 PM 56.8°F13.8°C 49.6°F9.8°C 77% 9.2 mph SSW14.8 kmh SSW 17.3 mph27.8 kmh 29.92 in1013.2 mb - 0.00 in0.0 mm 0.03 in0.8 mm
01:40 PM 57.5°F14.2°C 49.6°F9.8°C 75% 10.4 mph SSW16.7 kmh SSW 13.8 mph22.2 kmh 29.92 in1013.2 mb - 0.00 in0.0 mm 0.03 in0.8 mm
01:45 PM 57.5°F14.2°C 49.6°F9.8°C 75% 11.5 mph SSW18.5 kmh SSW 18.4 mph29.6 kmh 29.93 in1013.5 mb - 0.00 in0.0 mm 0.03 in0.8 mm
01:50 PM 56.7°F13.7°C 49.5°F9.7°C 77% 13.8 mph SSW22.2 kmh SSW 18.4 mph29.6 kmh 29.93 in1013.5 mb - 0.00 in0.0 mm 0.03 in0.8 mm
01:55 PM 56.0°F13.3°C 49.6°F9.8°C 79% 11.5 mph S18.5 kmh S 20.7 mph33.3 kmh 29.93 in1013.5 mb - 0.00 in0.0 mm 0.03 in0.8 mm
02:00 PM 55.7°F13.2°C 49.3°F9.6°C 79% 9.2 mph S14.8 kmh S 13.8 mph22.2 kmh 29.92 in1013.2 mb - 0.00 in0.0 mm 0.03 in0.8 mm
02:10 PM 56.2°F13.4°C 50.1°F10.1°C 80% 6.9 mph S11.1 kmh S 11.5 mph18.5 kmh 29.93 in1013.5 mb - 0.00 in0.0 mm 0.03 in0.8 mm
02:15 PM 56.1°F13.4°C 50.3°F10.2°C 81% 9.2 mph S14.8 kmh S 12.7 mph20.4 kmh 29.93 in1013.5 mb - 0.00 in0.0 mm 0.03 in0.8 mm
02:20 PM 55.7°F13.2°C 50.0°F10.0°C 81% 10.4 mph S16.7 kmh S 17.3 mph27.8 kmh 29.93 in1013.5 mb - 0.01 in0.3 mm 0.04 in1.0 mm
02:25 PM 56.0°F13.3°C 50.9°F10.5°C 83% 10.4 mph S16.7 kmh S 19.6 mph31.5 kmh 29.93 in1013.5 mb - 0.01 in0.3 mm 0.04 in1.0 mm
02:30 PM 55.7°F13.2°C 50.6°F10.3°C 83% 9.2 mph S14.8 kmh S 11.5 mph18.5 kmh 29.93 in1013.5 mb - 0.01 in0.3 mm 0.04 in1.0 mm
02:35 PM 55.3°F12.9°C 50.5°F10.3°C 84% 10.4 mph S16.7 kmh S 17.3 mph27.8 kmh 29.93 in1013.5 mb - 0.01 in0.3 mm 0.04 in1.0 mm
02:40 PM 54.9°F12.7°C 50.2°F10.1°C 84% 6.9 mph S11.1 kmh S 11.5 mph18.5 kmh 29.93 in1013.5 mb - 0.01 in0.3 mm 0.04 in1.0 mm
02:45 PM 54.9°F12.7°C 50.5°F10.3°C 85% 4.6 mph S7.4 kmh S 6.9 mph11.1 kmh 29.93 in1013.5 mb - 0.01 in0.3 mm 0.04 in1.0 mm
02:50 PM 55.0°F12.8°C 50.6°F10.3°C 85% 5.8 mph S9.3 kmh S 10.4 mph16.7 kmh 29.93 in1013.5 mb - 0.01 in0.3 mm 0.04 in1.0 mm
02:55 PM 55.1°F12.8°C 50.0°F10.0°C 83% 8.1 mph S13.0 kmh S 11.5 mph18.5 kmh 29.93 in1013.5 mb - 0.01 in0.3 mm 0.04 in1.0 mm
03:00 PM 55.4°F13.0°C 50.0°F10.0°C 82% 8.1 mph S13.0 kmh S 11.5 mph18.5 kmh 29.93 in1013.5 mb - 0.01 in0.3 mm 0.04 in1.0 mm
03:10 PM 55.9°F13.3°C 49.4°F9.7°C 79% 10.4 mph S16.7 kmh S 16.1 mph25.9 kmh 29.93 in1013.5 mb - 0.01 in0.3 mm 0.04 in1.0 mm
03:15 PM 56.0°F13.3°C 49.9°F9.9°C 80% 12.7 mph S20.4 kmh S 21.9 mph35.2 kmh 29.93 in1013.5 mb - 0.01 in0.3 mm 0.04 in1.0 mm
03:20 PM 56.1°F13.4°C 50.0°F10.0°C 80% 9.2 mph SSW14.8 kmh SSW 13.8 mph22.2 kmh 29.93 in1013.5 mb - 0.00 in0.0 mm 0.04 in1.0 mm
03:25 PM 56.5°F13.6°C 49.7°F9.8°C 78% 11.5 mph S18.5 kmh S 18.4 mph29.6 kmh 29.93 in1013.5 mb - 0.00 in0.0 mm 0.04 in1.0 mm
03:30 PM 56.8°F13.8°C 49.7°F9.8°C 77% 10.4 mph S16.7 kmh S 13.8 mph22.2 kmh 29.93 in1013.5 mb - 0.00 in0.0 mm 0.04 in1.0 mm
03:35 PM 56.9°F13.8°C 50.1°F10.1°C 78% 11.5 mph S18.5 kmh S 13.8 mph22.2 kmh 29.93 in1013.5 mb - 0.00 in0.0 mm 0.04 in1.0 mm
03:40 PM 56.5°F13.6°C 49.7°F9.8°C 78% 11.5 mph S18.5 kmh S 13.8 mph22.2 kmh 29.93 in1013.5 mb - 0.00 in0.0 mm 0.04 in1.0 mm
03:45 PM 56.3°F13.5°C 50.2°F10.1°C 80% 10.4 mph S16.7 kmh S 18.4 mph29.6 kmh 29.93 in1013.5 mb - 0.00 in0.0 mm 0.04 in1.0 mm
03:50 PM 56.2°F13.4°C 49.8°F9.9°C 79% 10.4 mph S16.7 kmh S 16.1 mph25.9 kmh 29.93 in1013.5 mb - 0.00 in0.0 mm 0.04 in1.0 mm
03:55 PM 56.3°F13.5°C 49.9°F9.9°C 79% 9.2 mph S14.8 kmh S 15.0 mph24.1 kmh 29.93 in1013.5 mb - 0.00 in0.0 mm 0.04 in1.0 mm
04:00 PM 56.5°F13.6°C 50.1°F10.1°C 79% 6.9 mph S11.1 kmh S 10.4 mph16.7 kmh 29.93 in1013.5 mb - 0.00 in0.0 mm 0.04 in1.0 mm
04:10 PM 56.7°F13.7°C 49.9°F9.9°C 78% 8.1 mph S13.0 kmh S 9.2 mph14.8 kmh 29.93 in1013.5 mb - 0.00 in0.0 mm 0.04 in1.0 mm
04:15 PM 56.7°F13.7°C 49.9°F9.9°C 78% 6.9 mph S11.1 kmh S 15.0 mph24.1 kmh 29.93 in1013.5 mb - 0.00 in0.0 mm 0.04 in1.0 mm
04:20 PM 56.9°F13.8°C 49.8°F9.9°C 77% 8.1 mph S13.0 kmh S 17.3 mph27.8 kmh 29.93 in1013.5 mb - 0.00 in0.0 mm 0.04 in1.0 mm
04:25 PM 56.9°F13.8°C 50.1°F10.1°C 78% 11.5 mph S18.5 kmh S 15.0 mph24.1 kmh 29.93 in1013.5 mb - 0.00 in0.0 mm 0.04 in1.0 mm
04:30 PM 56.5°F13.6°C 50.1°F10.1°C 79% 10.4 mph S16.7 kmh S 13.8 mph22.2 kmh 29.93 in1013.5 mb - 0.00 in0.0 mm 0.04 in1.0 mm
04:35 PM 56.4°F13.6°C 50.6°F10.3°C 81% 11.5 mph S18.5 kmh S 13.8 mph22.2 kmh 29.93 in1013.5 mb - 0.00 in0.0 mm 0.04 in1.0 mm
04:40 PM 57.5°F14.2°C 51.7°F10.9°C 81% 8.1 mph SSW13.0 kmh SSW 11.5 mph18.5 kmh 29.93 in1013.5 mb - 0.00 in0.0 mm 0.04 in1.0 mm
04:45 PM 57.9°F14.4°C 50.3°F10.2°C 76% 12.7 mph SSW20.4 kmh SSW 12.7 mph20.4 kmh 29.93 in1013.5 mb - 0.01 in0.3 mm 0.05 in1.3 mm
04:50 PM 58.3°F14.6°C 50.4°F10.2°C 75% 12.7 mph SSW20.4 kmh SSW 18.4 mph29.6 kmh 29.93 in1013.5 mb - 0.01 in0.3 mm 0.05 in1.3 mm
04:55 PM 58.7°F14.8°C 50.8°F10.4°C 75% 10.4 mph SW16.7 kmh SW 16.1 mph25.9 kmh 29.93 in1013.5 mb - 0.01 in0.3 mm 0.05 in1.3 mm
05:00 PM 58.9°F14.9°C 50.6°F10.3°C 74% 11.5 mph SW18.5 kmh SW 17.3 mph27.8 kmh 29.93 in1013.5 mb - 0.01 in0.3 mm 0.05 in1.3 mm
05:10 PM 59.2°F15.1°C 51.3°F10.7°C 75% 8.1 mph SW13.0 kmh SW 15.0 mph24.1 kmh 29.93 in1013.5 mb - 0.01 in0.3 mm 0.05 in1.3 mm
05:15 PM 59.2°F15.1°C 50.9°F10.5°C 74% 11.5 mph SSW18.5 kmh SSW 19.6 mph31.5 kmh 29.93 in1013.5 mb - 0.01 in0.3 mm 0.05 in1.3 mm
05:20 PM 58.9°F14.9°C 50.3°F10.2°C 73% 11.5 mph SSW18.5 kmh SSW 19.6 mph31.5 kmh 29.93 in1013.5 mb - 0.01 in0.3 mm 0.05 in1.3 mm
05:25 PM 59.1°F15.1°C 50.4°F10.2°C 73% 10.4 mph SW16.7 kmh SW 18.4 mph29.6 kmh 29.94 in1013.9 mb - 0.01 in0.3 mm 0.05 in1.3 mm
05:30 PM 59.4°F15.2°C 50.4°F10.2°C 72% 13.8 mph SW22.2 kmh SW 18.4 mph29.6 kmh 29.94 in1013.9 mb - 0.01 in0.3 mm 0.05 in1.3 mm
05:35 PM 59.5°F15.3°C 50.5°F10.3°C 72% 11.5 mph SW18.5 kmh SW 15.0 mph24.1 kmh 29.94 in1013.9 mb - 0.01 in0.3 mm 0.05 in1.3 mm
05:40 PM 59.2°F15.1°C 49.4°F9.7°C 70% 19.6 mph SW31.5 kmh SW 23.0 mph37.0 kmh 29.94 in1013.9 mb - 0.01 in0.3 mm 0.05 in1.3 mm
05:45 PM 58.8°F14.9°C 49.4°F9.7°C 71% 12.7 mph SW20.4 kmh SW 17.3 mph27.8 kmh 29.94 in1013.9 mb - 0.00 in0.0 mm 0.05 in1.3 mm
05:50 PM 58.5°F14.7°C 50.2°F10.1°C 74% 12.7 mph SSW20.4 kmh SSW 20.7 mph33.3 kmh 29.95 in1014.2 mb - 0.00 in0.0 mm 0.05 in1.3 mm
05:55 PM 57.8°F14.3°C 50.7°F10.4°C 77% 9.2 mph SSW14.8 kmh SSW 16.1 mph25.9 kmh 29.95 in1014.2 mb - 0.00 in0.0 mm 0.05 in1.3 mm
06:00 PM 57.6°F14.2°C 50.1°F10.1°C 76% 10.4 mph SSW16.7 kmh SSW 12.7 mph20.4 kmh 29.94 in1013.9 mb - 0.00 in0.0 mm 0.05 in1.3 mm
06:10 PM 57.3°F14.1°C 50.8°F10.4°C 79% 8.1 mph S13.0 kmh S 9.2 mph14.8 kmh 29.94 in1013.9 mb - 0.00 in0.0 mm 0.05 in1.3 mm
06:15 PM 57.3°F14.1°C 51.2°F10.7°C 80% 8.1 mph SSW13.0 kmh SSW 15.0 mph24.1 kmh 29.94 in1013.9 mb - 0.00 in0.0 mm 0.05 in1.3 mm
06:20 PM 57.2°F14.0°C 51.4°F10.8°C 81% 9.2 mph SSW14.8 kmh SSW 12.7 mph20.4 kmh 29.95 in1014.2 mb - 0.00 in0.0 mm 0.05 in1.3 mm
06:25 PM 57.0°F13.9°C 51.2°F10.7°C 81% 8.1 mph SSW13.0 kmh SSW 11.5 mph18.5 kmh 29.96 in1014.6 mb - 0.00 in0.0 mm 0.05 in1.3 mm
06:30 PM 56.8°F13.8°C 51.4°F10.8°C 82% 6.9 mph SW11.1 kmh SW 13.8 mph22.2 kmh 29.96 in1014.6 mb - 0.00 in0.0 mm 0.05 in1.3 mm
06:35 PM 56.3°F13.5°C 51.2°F10.7°C 83% 10.4 mph SW16.7 kmh SW 18.4 mph29.6 kmh 29.97 in1014.9 mb - 0.02 in0.5 mm 0.06 in1.5 mm
06:40 PM 55.6°F13.1°C 50.5°F10.3°C 83% 13.8 mph SW22.2 kmh SW 18.4 mph29.6 kmh 29.98 in1015.2 mb - 0.03 in0.8 mm 0.08 in2.0 mm
06:45 PM 54.7°F12.6°C 50.0°F10.0°C 84% 15.0 mph SW24.1 kmh SW 20.7 mph33.3 kmh 29.98 in1015.2 mb - 0.06 in1.5 mm 0.10 in2.5 mm
06:50 PM 53.9°F12.2°C 49.5°F9.7°C 85% 16.1 mph SW25.9 kmh SW 20.7 mph33.3 kmh 29.98 in1015.2 mb - 0.07 in1.8 mm 0.12 in3.0 mm
06:55 PM 53.4°F11.9°C 49.0°F9.4°C 85% 11.5 mph SW18.5 kmh SW 13.8 mph22.2 kmh 29.97 in1014.9 mb - 0.09 in2.3 mm 0.13 in3.3 mm
07:00 PM 53.1°F11.7°C 49.0°F9.4°C 86% 10.4 mph SW16.7 kmh SW 11.5 mph18.5 kmh 29.96 in1014.6 mb - 0.09 in2.3 mm 0.13 in3.3 mm
07:10 PM 53.3°F11.8°C 49.5°F9.7°C 87% 8.1 mph SSW13.0 kmh SSW 11.5 mph18.5 kmh 29.96 in1014.6 mb - 0.09 in2.3 mm 0.13 in3.3 mm
07:15 PM 53.3°F11.8°C 49.5°F9.7°C 87% 6.9 mph S11.1 kmh S 9.2 mph14.8 kmh 29.96 in1014.6 mb - 0.09 in2.3 mm 0.13 in3.3 mm
07:20 PM 53.3°F11.8°C 49.5°F9.7°C 87% 5.8 mph S9.3 kmh S 9.2 mph14.8 kmh 29.97 in1014.9 mb - 0.09 in2.3 mm 0.13 in3.3 mm
07:25 PM 53.1°F11.7°C 49.4°F9.7°C 87% 5.8 mph SSW9.3 kmh SSW 8.1 mph13.0 kmh 29.97 in1014.9 mb - 0.09 in2.3 mm 0.13 in3.3 mm
07:30 PM 53.3°F11.8°C 49.8°F9.9°C 88% 16.1 mph SW25.9 kmh SW 24.2 mph38.9 kmh 29.98 in1015.2 mb - 0.13 in3.3 mm 0.17 in4.3 mm
07:35 PM 53.6°F12.0°C 50.1°F10.1°C 88% 11.5 mph SW18.5 kmh SW 16.1 mph25.9 kmh 29.98 in1015.2 mb - 0.13 in3.3 mm 0.19 in4.8 mm
07:40 PM 53.6°F12.0°C 50.1°F10.1°C 88% 6.9 mph SW11.1 kmh SW 13.8 mph22.2 kmh 29.98 in1015.2 mb - 0.12 in3.0 mm 0.20 in5.1 mm
07:45 PM 53.6°F12.0°C 50.1°F10.1°C 88% 5.8 mph SW9.3 kmh SW 10.4 mph16.7 kmh 29.98 in1015.2 mb - 0.10 in2.5 mm 0.20 in5.1 mm
07:50 PM 53.6°F12.0°C 50.1°F10.1°C 88% 6.9 mph SW11.1 kmh SW 6.9 mph11.1 kmh 29.98 in1015.2 mb - 0.08 in2.0 mm 0.20 in5.1 mm
07:55 PM 53.8°F12.1°C 50.3°F10.2°C 88% 8.1 mph SW13.0 kmh SW 11.5 mph18.5 kmh 29.98 in1015.2 mb - 0.07 in1.8 mm 0.20 in5.1 mm
08:00 PM 54.1°F12.3°C 50.7°F10.4°C 88% 10.4 mph SSW16.7 kmh SSW 13.8 mph22.2 kmh 29.98 in1015.2 mb - 0.06 in1.5 mm 0.20 in5.1 mm
08:10 PM 54.4°F12.4°C 50.6°F10.3°C 87% 9.2 mph SSW14.8 kmh SSW 10.4 mph16.7 kmh 29.99 in1015.6 mb - 0.06 in1.5 mm 0.20 in5.1 mm
08:15 PM 54.3°F12.4°C 50.5°F10.3°C 87% 11.5 mph SW18.5 kmh SW 13.8 mph22.2 kmh 29.99 in1015.6 mb - 0.06 in1.5 mm 0.20 in5.1 mm
08:20 PM 54.1°F12.3°C 50.3°F10.2°C 87% 8.1 mph SW13.0 kmh SW 12.7 mph20.4 kmh 29.99 in1015.6 mb - 0.06 in1.5 mm 0.20 in5.1 mm
08:25 PM 54.0°F12.2°C 50.2°F10.1°C 87% 8.1 mph SSW13.0 kmh SSW 12.7 mph20.4 kmh 29.99 in1015.6 mb - 0.06 in1.5 mm 0.20 in5.1 mm
08:30 PM 53.9°F12.2°C 50.4°F10.2°C 88% 9.2 mph SSW14.8 kmh SSW 16.1 mph25.9 kmh 29.99 in1015.6 mb - 0.04 in1.0 mm 0.20 in5.1 mm
08:35 PM 53.9°F12.2°C 50.1°F10.1°C 87% 9.2 mph SSW14.8 kmh SSW 12.7 mph20.4 kmh 29.99 in1015.6 mb - 0.01 in0.3 mm 0.20 in5.1 mm
08:40 PM 53.9°F12.2°C 50.4°F10.2°C 88% 10.4 mph SSW16.7 kmh SSW 13.8 mph22.2 kmh 29.98 in1015.2 mb - 0.00 in0.0 mm 0.20 in5.1 mm
08:45 PM 53.9°F12.2°C 50.4°F10.2°C 88% 8.1 mph SSW13.0 kmh SSW 16.1 mph25.9 kmh 29.99 in1015.6 mb - 0.00 in0.0 mm 0.20 in5.1 mm
08:50 PM 54.0°F12.2°C 50.5°F10.3°C 88% 10.4 mph S16.7 kmh S 13.8 mph22.2 kmh 29.99 in1015.6 mb - 0.00 in0.0 mm 0.20 in5.1 mm
08:55 PM 54.0°F12.2°C 50.6°F10.3°C 88% 8.1 mph SSW13.0 kmh SSW 11.5 mph18.5 kmh 29.99 in1015.6 mb - 0.00 in0.0 mm 0.20 in5.1 mm
09:00 PM 54.1°F12.3°C 50.6°F10.3°C 88% 9.2 mph SSW14.8 kmh SSW 11.5 mph18.5 kmh 29.99 in1015.6 mb - 0.00 in0.0 mm 0.20 in5.1 mm
09:10 PM 54.2°F12.3°C 50.7°F10.4°C 88% 10.4 mph S16.7 kmh S 16.1 mph25.9 kmh 29.99 in1015.6 mb - 0.00 in0.0 mm 0.20 in5.1 mm
09:15 PM 54.2°F12.3°C 50.7°F10.4°C 88% 9.2 mph S14.8 kmh S 12.7 mph20.4 kmh 29.99 in1015.6 mb - 0.00 in0.0 mm 0.20 in5.1 mm
09:20 PM 54.2°F12.3°C 50.7°F10.4°C 88% 9.2 mph SSW14.8 kmh SSW 11.5 mph18.5 kmh 30.00 in1015.9 mb - 0.00 in0.0 mm 0.20 in5.1 mm
09:25 PM 54.2°F12.3°C 50.7°F10.4°C 88% 10.4 mph SSW16.7 kmh SSW 13.8 mph22.2 kmh 30.00 in1015.9 mb - 0.00 in0.0 mm 0.20 in5.1 mm
09:30 PM 54.1°F12.3°C 50.6°F10.3°C 88% 8.1 mph SSW13.0 kmh SSW 11.5 mph18.5 kmh 30.00 in1015.9 mb - 0.00 in0.0 mm 0.20 in5.1 mm
09:35 PM 54.1°F12.3°C 50.6°F10.3°C 88% 10.4 mph SSW16.7 kmh SSW 17.3 mph27.8 kmh 30.00 in1015.9 mb - 0.00 in0.0 mm 0.20 in5.1 mm
09:40 PM 54.0°F12.2°C 50.8°F10.4°C 89% 9.2 mph SSW14.8 kmh SSW 11.5 mph18.5 kmh 30.00 in1015.9 mb - 0.00 in0.0 mm 0.20 in5.1 mm
09:45 PM 54.0°F12.2°C 50.8°F10.4°C 89% 10.4 mph SW16.7 kmh SW 12.7 mph20.4 kmh 30.00 in1015.9 mb - 0.00 in0.0 mm 0.20 in5.1 mm
09:50 PM 53.9°F12.2°C 50.4°F10.2°C 88% 9.2 mph SSW14.8 kmh SSW 15.0 mph24.1 kmh 30.00 in1015.9 mb - 0.00 in0.0 mm 0.20 in5.1 mm
09:55 PM 53.7°F12.1°C 50.2°F10.1°C 88% 6.9 mph SSW11.1 kmh SSW 11.5 mph18.5 kmh 30.00 in1015.9 mb - 0.00 in0.0 mm 0.20 in5.1 mm
10:00 PM 53.6°F12.0°C 50.2°F10.1°C 88% 6.9 mph S11.1 kmh S 11.5 mph18.5 kmh 30.00 in1015.9 mb - 0.00 in0.0 mm 0.20 in5.1 mm
10:10 PM 53.5°F11.9°C 50.0°F10.0°C 88% 9.2 mph SSW14.8 kmh SSW 15.0 mph24.1 kmh 30.00 in1015.9 mb - 0.00 in0.0 mm 0.20 in5.1 mm
10:15 PM 53.4°F11.9°C 49.6°F9.8°C 87% 8.1 mph SSW13.0 kmh SSW 11.5 mph18.5 kmh 30.00 in1015.9 mb - 0.00 in0.0 mm 0.20 in5.1 mm
10:20 PM 53.2°F11.8°C 49.5°F9.7°C 87% 6.9 mph S11.1 kmh S 10.4 mph16.7 kmh 30.00 in1015.9 mb - 0.00 in0.0 mm 0.20 in5.1 mm
10:25 PM 53.3°F11.8°C 49.8°F9.9°C 88% 6.9 mph S11.1 kmh S 10.4 mph16.7 kmh 30.00 in1015.9 mb - 0.00 in0.0 mm 0.20 in5.1 mm
10:30 PM 53.3°F11.8°C 49.8°F9.9°C 88% 6.9 mph SSW11.1 kmh SSW 10.4 mph16.7 kmh 30.00 in1015.9 mb - 0.00 in0.0 mm 0.20 in5.1 mm
10:35 PM 53.3°F11.8°C 49.6°F9.8°C 87% 5.8 mph S9.3 kmh S 11.5 mph18.5 kmh 30.00 in1015.9 mb - 0.00 in0.0 mm 0.20 in5.1 mm
10:40 PM 53.5°F11.9°C 50.0°F10.0°C 88% 9.2 mph S14.8 kmh S 15.0 mph24.1 kmh 30.00 in1015.9 mb - 0.00 in0.0 mm 0.20 in5.1 mm
10:45 PM 53.6°F12.0°C 49.9°F9.9°C 87% 6.9 mph S11.1 kmh S 11.5 mph18.5 kmh 30.00 in1015.9 mb - 0.00 in0.0 mm 0.20 in5.1 mm
10:50 PM 53.6°F12.0°C 49.8°F9.9°C 87% 9.2 mph S14.8 kmh S 13.8 mph22.2 kmh 30.00 in1015.9 mb - 0.00 in0.0 mm 0.20 in5.1 mm
10:55 PM 53.6°F12.0°C 49.8°F9.9°C 87% 9.2 mph SSW14.8 kmh SSW 11.5 mph18.5 kmh 30.00 in1015.9 mb - 0.00 in0.0 mm 0.20 in5.1 mm
11:00 PM 53.6°F12.0°C 49.8°F9.9°C 87% 5.8 mph S9.3 kmh S 9.2 mph14.8 kmh 30.00 in1015.9 mb - 0.00 in0.0 mm 2.26 in57.4 mm
11:10 PM 53.4°F11.9°C 49.9°F9.9°C 88% 6.9 mph S11.1 kmh S 10.4 mph16.7 kmh 30.00 in1015.9 mb - 0.00 in0.0 mm 2.26 in57.4 mm
11:15 PM 53.4°F11.9°C 50.0°F10.0°C 88% 6.9 mph S11.1 kmh S 9.2 mph14.8 kmh 30.00 in1015.9 mb - 0.00 in0.0 mm 2.26 in57.4 mm
11:20 PM 53.4°F11.9°C 50.0°F10.0°C 88% 8.1 mph S13.0 kmh S 11.5 mph18.5 kmh 30.00 in1015.9 mb - 0.00 in0.0 mm 2.26 in57.4 mm
11:25 PM 53.6°F12.0°C 50.1°F10.1°C 88% 5.8 mph S9.3 kmh S 11.5 mph18.5 kmh 30.00 in1015.9 mb - 0.00 in0.0 mm 2.26 in57.4 mm
11:30 PM 53.7°F12.1°C 50.3°F10.2°C 88% 8.1 mph S13.0 kmh S 11.5 mph18.5 kmh 30.00 in1015.9 mb - 0.00 in0.0 mm 2.26 in57.4 mm
11:35 PM 53.8°F12.1°C 50.3°F10.2°C 88% 9.2 mph S14.8 kmh S 15.0 mph24.1 kmh 30.00 in1015.9 mb - 0.00 in0.0 mm 2.26 in57.4 mm
11:40 PM 53.9°F12.2°C 50.4°F10.2°C 88% 9.2 mph S14.8 kmh S 11.5 mph18.5 kmh 30.01 in1016.3 mb - 0.00 in0.0 mm 2.26 in57.4 mm
11:45 PM 53.9°F12.2°C 50.4°F10.2°C 88% 8.1 mph SSW13.0 kmh SSW 11.5 mph18.5 kmh 30.01 in1016.3 mb - 0.00 in0.0 mm 2.26 in57.4 mm
11:50 PM 53.8°F12.1°C 50.0°F10.0°C 87% 6.9 mph S11.1 kmh S 9.2 mph14.8 kmh 30.00 in1015.9 mb - 0.00 in0.0 mm 2.26 in57.4 mm
11:55 PM 53.7°F12.1°C 49.9°F9.9°C 87% 6.9 mph SSW11.1 kmh SSW 10.4 mph16.7 kmh 30.01 in1016.3 mb - 0.00 in0.0 mm 2.26 in57.4 mm